Map

Track Data

SID SEASON NUMBER BASIN SUBBASIN NAME ISO_TIME NATURE LAT LON WMO_WIND WMO_PRES WMO_AGENCY TRACK_TYPE DIST2LAND LANDFALL IFLAG USA_AGENCY USA_ATCF_ID USA_LAT USA_LON USA_RECORD USA_STATUS USA_WIND USA_PRES USA_SSHS USA_R34_NE USA_R34_SE USA_R34_SW USA_R34_NW USA_R50_NE USA_R50_SE USA_R50_SW USA_R50_NW USA_R64_NE USA_R64_SE USA_R64_SW USA_R64_NW USA_POCI USA_ROCI USA_RMW USA_EYE TOKYO_LAT TOKYO_LON TOKYO_GRADE TOKYO_WIND TOKYO_PRES TOKYO_R50_DIR TOKYO_R50_LONG TOKYO_R50_SHORT TOKYO_R30_DIR TOKYO_R30_LONG TOKYO_R30_SHORT TOKYO_LAND CMA_LAT CMA_LON CMA_CAT CMA_WIND CMA_PRES HKO_LAT HKO_LON HKO_CAT HKO_WIND HKO_PRES NEWDELHI_LAT NEWDELHI_LON NEWDELHI_GRADE NEWDELHI_WIND NEWDELHI_PRES NEWDELHI_CI NEWDELHI_DP NEWDELHI_POCI REUNION_LAT REUNION_LON REUNION_TYPE REUNION_WIND REUNION_PRES REUNION_TNUM REUNION_CI REUNION_RMW REUNION_R34_NE REUNION_R34_SE REUNION_R34_SW REUNION_R34_NW REUNION_R50_NE REUNION_R50_SE REUNION_R50_SW REUNION_R50_NW REUNION_R64_NE REUNION_R64_SE REUNION_R64_SW REUNION_R64_NW BOM_LAT BOM_LON BOM_TYPE BOM_WIND BOM_PRES BOM_TNUM BOM_CI BOM_RMW BOM_R34_NE BOM_R34_SE BOM_R34_SW BOM_R34_NW BOM_R50_NE BOM_R50_SE BOM_R50_SW BOM_R50_NW BOM_R64_NE BOM_R64_SE BOM_R64_SW BOM_R64_NW BOM_ROCI BOM_POCI BOM_EYE BOM_POS_METHOD BOM_PRES_METHOD NADI_LAT NADI_LON NADI_CAT NADI_WIND NADI_PRES WELLINGTON_LAT WELLINGTON_LON WELLINGTON_WIND WELLINGTON_PRES DS824_LAT DS824_LON DS824_STAGE DS824_WIND DS824_PRES TD9636_LAT TD9636_LON TD9636_STAGE TD9636_WIND TD9636_PRES TD9635_LAT TD9635_LON TD9635_WIND TD9635_PRES TD9635_ROCI NEUMANN_LAT NEUMANN_LON NEUMANN_CLASS NEUMANN_WIND NEUMANN_PRES MLC_LAT MLC_LON MLC_CLASS MLC_WIND MLC_PRES USA_GUST BOM_GUST BOM_GUST_PER REUNION_GUST REUNION_GUST_PER USA_SEAHGT USA_SEARAD_NE USA_SEARAD_SE USA_SEARAD_SW USA_SEARAD_NW STORM_SPEED STORM_DIR
1987220N34283 1987 54 NA NA ARLENE 1987-08-08 00:00:00 DS 34.3000 -77.5000 10 1016 hurdat_atl main 14 14 O_____________ hurdat_atl AL021987 34.3000 -77.5000 LO 10 1016 -3 8 124
1987220N34283 1987 54 NA NA ARLENE 1987-08-08 03:00:00 DS 34.0752 -77.0973 main 52 52 P_____________ AL021987 34.0752 -77.0973 LO 10 1016 -3 8 127
1987220N34283 1987 54 NA NA ARLENE 1987-08-08 06:00:00 DS 33.8000 -76.7000 10 1016 hurdat_atl main 100 100 O_____________ hurdat_atl AL021987 33.8000 -76.7000 LO 10 1016 -3 9 135
1987220N34283 1987 54 NA NA ARLENE 1987-08-08 09:00:00 DS 33.4375 -76.3199 main 146 146 P_____________ AL021987 33.4375 -76.3199 LO 10 1015 -3 10 144
1987220N34283 1987 54 NA NA ARLENE 1987-08-08 12:00:00 DS 33.0000 -76.0000 10 1015 hurdat_atl main 195 195 O_____________ hurdat_atl AL021987 33.0000 -76.0000 LO 10 1015 -3 10 154
1987220N34283 1987 54 NA NA ARLENE 1987-08-08 15:00:00 DS 32.5148 -75.7779 main 253 253 P_____________ AL021987 32.5148 -75.7779 LO 10 1015 -3 11 161
1987220N34283 1987 54 NA NA ARLENE 1987-08-08 18:00:00 DS 32.0000 -75.6000 10 1015 hurdat_atl main 307 307 O_____________ hurdat_atl AL021987 32.0000 -75.6000 LO 10 1015 -3 11 162
1987220N34283 1987 54 NA NA ARLENE 1987-08-08 21:00:00 DS 31.5000 -75.3850 main 361 361 P_____________ AL021987 31.5000 -75.3850 LO 10 1014 -3 11 161
1987220N34283 1987 54 NA NA ARLENE 1987-08-09 00:00:00 DS 31.0000 -75.2000 10 1014 hurdat_atl main 416 416 O_____________ hurdat_atl AL021987 31.0000 -75.2000 LO 10 1014 -3 10 165
1987220N34283 1987 54 NA NA ARLENE 1987-08-09 03:00:00 DS 30.5000 -75.0625 main 466 466 P_____________ AL021987 30.5000 -75.0625 LO 10 1014 -3 10 170
1987220N34283 1987 54 NA NA ARLENE 1987-08-09 06:00:00 DS 30.0000 -75.0000 10 1014 hurdat_atl main 518 518 O_____________ hurdat_atl AL021987 30.0000 -75.0000 LO 10 1014 -3 10 178
1987220N34283 1987 54 NA NA ARLENE 1987-08-09 09:00:00 DS 29.4925 -75.0126 main 545 521 P_____________ AL021987 29.4925 -75.0126 LO 12 1013 -3 10 185
1987220N34283 1987 54 NA NA ARLENE 1987-08-09 12:00:00 DS 29.0000 -75.1000 15 1013 hurdat_atl main 521 479 O_____________ hurdat_atl AL021987 29.0000 -75.1000 LO 15 1013 -3 10 191
1987220N34283 1987 54 NA NA ARLENE 1987-08-09 15:00:00 DS 28.5425 -75.2275 main 470 423 P_____________ AL021987 28.5425 -75.2275 LO 15 1012 -3 9 196
1987220N34283 1987 54 NA NA ARLENE 1987-08-09 18:00:00 DS 28.1000 -75.4000 15 1012 hurdat_atl main 423 375 O_____________ hurdat_atl AL021987 28.1000 -75.4000 LO 15 1012 -3 10 199
1987220N34283 1987 54 NA NA ARLENE 1987-08-09 21:00:00 DS 27.6500 -75.5848 main 367 321 P_____________ AL021987 27.6500 -75.5848 LO 15 1011 -3 10 201
1987220N34283 1987 54 NA NA ARLENE 1987-08-10 00:00:00 DS 27.2000 -75.8000 15 1011 hurdat_atl main 321 275 O_____________ hurdat_atl AL021987 27.2000 -75.8000 LO 15 1011 -3 10 204
1987220N34283 1987 54 NA NA ARLENE 1987-08-10 03:00:00 DS 26.7425 -76.0349 main 268 216 P_____________ AL021987 26.7425 -76.0349 LO 17 1010 -3 10 206
1987220N34283 1987 54 NA NA ARLENE 1987-08-10 06:00:00 DS 26.3000 -76.3000 20 1010 hurdat_atl main 216 174 O_____________ hurdat_atl AL021987 26.3000 -76.3000 LO 20 1010 -3 10 208
1987220N34283 1987 54 NA NA ARLENE 1987-08-10 09:00:00 DS 25.8697 -76.5547 main 166 119 P_____________ AL021987 25.8697 -76.5547 LO 20 1009 -3 10 214
1987220N34283 1987 54 NA NA ARLENE 1987-08-10 12:00:00 DS 25.5000 -76.9000 20 1009 hurdat_atl main 119 55 O_____________ hurdat_atl AL021987 25.5000 -76.9000 LO 20 1009 -3 11 227
1987220N34283 1987 54 NA NA ARLENE 1987-08-10 15:00:00 DS 25.1007 -77.4809 main 46 0 P_____________ AL021987 25.1007 -77.4809 LO 22 1009 -3 11 243
1987220N34283 1987 54 NA NA ARLENE 1987-08-10 18:00:00 TS 25.0000 -78.0000 25 1009 hurdat_atl main 0 0 O_____________ hurdat_atl AL021987 25.0000 -78.0000 TD 25 1009 -1 8 299
1987220N34283 1987 54 NA NA ARLENE 1987-08-10 21:00:00 TS 25.4869 -78.2559 main 48 48 P_____________ AL021987 25.4869 -78.2559 TD 25 1009 -1 12 351
1987220N34283 1987 54 NA NA ARLENE 1987-08-11 00:00:00 TS 26.2000 -78.2000 25 1009 hurdat_atl main 123 123 O_____________ hurdat_atl AL021987 26.2000 -78.2000 TD 25 1009 -1 13 17
1987220N34283 1987 54 NA NA ARLENE 1987-08-11 03:00:00 TS 26.7074 -77.8275 main 179 179 P_____________ AL021987 26.7074 -77.8275 TD 25 1008 -1 13 42
1987220N34283 1987 54 NA NA ARLENE 1987-08-11 06:00:00 TS 27.2000 -77.2000 25 1008 hurdat_atl main 247 247 O_____________ hurdat_atl AL021987 27.2000 -77.2000 TD 25 1008 -1 16 49
1987220N34283 1987 54 NA NA ARLENE 1987-08-11 09:00:00 TS 27.7429 -76.4726 main 326 326 P_____________ AL021987 27.7429 -76.4726 TD 25 1008 -1 17 50
1987220N34283 1987 54 NA NA ARLENE 1987-08-11 12:00:00 TS 28.3000 -75.7000 25 1008 hurdat_atl main 424 424 O_____________ hurdat_atl AL021987 28.3000 -75.7000 TD 25 1008 -1 17 49
1987220N34283 1987 54 NA NA ARLENE 1987-08-11 15:00:00 TS 28.8346 -75.0264 main 508 508 P_____________ AL021987 28.8346 -75.0264 TD 30 1007 -1 16 46
1987220N34283 1987 54 NA NA ARLENE 1987-08-11 18:00:00 TS 29.4000 -74.4000 35 1006 hurdat_atl main 597 578 O_____________ hurdat_atl AL021987 29.4000 -74.4000 TS 35 1006 0 17 41
1987220N34283 1987 54 NA NA ARLENE 1987-08-11 21:00:00 TS 30.0799 -73.7705 main 571 542 P_____________ AL021987 30.0799 -73.7705 TS 37 1004 0 17 39
1987220N34283 1987 54 NA NA ARLENE 1987-08-12 00:00:00 TS 30.7000 -73.2000 40 1002 hurdat_atl main 542 529 O_____________ hurdat_atl AL021987 30.7000 -73.2000 TS 40 1002 0 13 40
1987220N34283 1987 54 NA NA ARLENE 1987-08-12 03:00:00 TS 31.1017 -72.7560 main 529 526 P_____________ AL021987 31.1017 -72.7560 TS 40 1001 0 10 48
1987220N34283 1987 54 NA NA ARLENE 1987-08-12 06:00:00 TS 31.4000 -72.3000 40 1001 hurdat_atl main 536 535 O_____________ hurdat_atl AL021987 31.4000 -72.3000 TS 40 1001 0 11 56
1987220N34283 1987 54 NA NA ARLENE 1987-08-12 09:00:00 TS 31.7226 -71.6801 main 556 556 P_____________ AL021987 31.7226 -71.6801 TS 42 1000 0 13 62
1987220N34283 1987 54 NA NA ARLENE 1987-08-12 12:00:00 TS 32.0000 -71.0000 45 1000 hurdat_atl main 587 587 O_____________ hurdat_atl AL021987 32.0000 -71.0000 TS 45 1000 0 12 66
1987220N34283 1987 54 NA NA ARLENE 1987-08-12 15:00:00 TS 32.2295 -70.3572 main 617 616 P_____________ AL021987 32.2295 -70.3572 TS 45 999 0 12 70
1987220N34283 1987 54 NA NA ARLENE 1987-08-12 18:00:00 TS 32.4000 -69.7000 45 999 hurdat_atl main 653 653 O_____________ hurdat_atl AL021987 32.4000 -69.7000 TS 45 999 0 12 76
1987220N34283 1987 54 NA NA ARLENE 1987-08-12 21:00:00 TS 32.5074 -68.9994 main 700 700 P_____________ AL021987 32.5074 -68.9994 TS 50 998 0 12 80
1987220N34283 1987 54 NA NA ARLENE 1987-08-13 00:00:00 TS 32.6000 -68.3000 55 997 hurdat_atl main 750 750 O_____________ hurdat_atl AL021987 32.6000 -68.3000 TS 55 997 0 12 78
1987220N34283 1987 54 NA NA ARLENE 1987-08-13 03:00:00 TS 32.7568 -67.6577 main 788 788 P_____________ AL021987 32.7568 -67.6577 TS 55 997 0 11 75
1987220N34283 1987 54 NA NA ARLENE 1987-08-13 06:00:00 TS 32.9000 -67.0000 55 997 hurdat_atl main 842 842 O_____________ hurdat_atl AL021987 32.9000 -67.0000 TS 55 997 0 12 80
1987220N34283 1987 54 NA NA ARLENE 1987-08-13 09:00:00 TS 32.9729 -66.2273 main 906 906 P_____________ AL021987 32.9729 -66.2273 TS 55 997 0 13 85
1987220N34283 1987 54 NA NA ARLENE 1987-08-13 12:00:00 TS 33.0000 -65.5000 55 998 hurdat_atl main 966 966 O_____________ hurdat_atl AL021987 33.0000 -65.5000 TS 55 998 0 11 88
1987220N34283 1987 54 NA NA ARLENE 1987-08-13 15:00:00 TS 33.0069 -64.9548 main 1010 1010 P_____________ AL021987 33.0069 -64.9548 TS 55 998 0 8 90
1987220N34283 1987 54 NA NA ARLENE 1987-08-13 18:00:00 TS 33.0000 -64.5000 55 999 hurdat_atl main 1053 1053 O_____________ hurdat_atl AL021987 33.0000 -64.5000 TS 55 999 0 8 90
1987220N34283 1987 54 NA NA ARLENE 1987-08-13 21:00:00 TS 33.0073 -64.0351 main 1097 1097 P_____________ AL021987 33.0073 -64.0351 TS 52 1000 0 8 90
1987220N34283 1987 54 NA NA ARLENE 1987-08-14 00:00:00 TS 33.0000 -63.6000 50 1002 hurdat_atl main 1120 1120 O_____________ hurdat_atl AL021987 33.0000 -63.6000 TS 50 1002 0 7 94
1987220N34283 1987 54 NA NA ARLENE 1987-08-14 03:00:00 TS 32.9575 -63.1699 main 1138 1138 P_____________ AL021987 32.9575 -63.1699 TS 47 1002 0 7 98
1987220N34283 1987 54 NA NA ARLENE 1987-08-14 06:00:00 TS 32.9000 -62.8000 45 1003 hurdat_atl main 1166 1166 O_____________ hurdat_atl AL021987 32.9000 -62.8000 TS 45 1003 0 5 101
1987220N34283 1987 54 NA NA ARLENE 1987-08-14 09:00:00 TS 32.8573 -62.5276 main 1181 1181 P_____________ AL021987 32.8573 -62.5276 TS 47 999 0 4 103
1987220N34283 1987 54 NA NA ARLENE 1987-08-14 12:00:00 TS 32.8000 -62.3000 50 996 hurdat_atl main 1200 1200 O_____________ hurdat_atl AL021987 32.8000 -62.3000 TS 50 996 0 4 110
1987220N34283 1987 54 NA NA ARLENE 1987-08-14 15:00:00 TS 32.7074 -62.0500 main 1225 1225 P_____________ AL021987 32.7074 -62.0500 TS 52 995 0 5 115
1987220N34283 1987 54 NA NA ARLENE 1987-08-14 18:00:00 TS 32.6000 -61.8000 55 994 hurdat_atl main 1244 1244 O_____________ hurdat_atl AL021987 32.6000 -61.8000 TS 55 994 0 5 116
1987220N34283 1987 54 NA NA ARLENE 1987-08-14 21:00:00 TS 32.4999 -61.5501 main 1264 1264 P_____________ AL021987 32.5000 -61.5501 TS 55 994 0 5 115
1987220N34283 1987 54 NA NA ARLENE 1987-08-15 00:00:00 TS 32.4000 -61.3000 55 994 hurdat_atl main 1284 1284 O_____________ hurdat_atl AL021987 32.4000 -61.3000 TS 55 994 0 5 113
1987220N34283 1987 54 NA NA ARLENE 1987-08-15 03:00:00 TS 32.3224 -61.0502 main 1299 1299 P_____________ AL021987 32.3224 -61.0502 TS 55 994 0 5 115
1987220N34283 1987 54 NA NA ARLENE 1987-08-15 06:00:00 TS 32.2000 -60.8000 55 995 hurdat_atl main 1318 1318 O_____________ hurdat_atl AL021987 32.2000 -60.8000 TS 55 995 0 6 129
1987220N34283 1987 54 NA NA ARLENE 1987-08-15 09:00:00 TS 31.9650 -60.5348 main 1347 1347 P_____________ AL021987 31.9650 -60.5348 TS 52 995 0 7 140
1987220N34283 1987 54 NA NA ARLENE 1987-08-15 12:00:00 TS 31.7000 -60.3000 50 996 hurdat_atl main 1384 1384 O_____________ hurdat_atl AL021987 31.7000 -60.3000 TS 50 996 0 6 145
1987220N34283 1987 54 NA NA ARLENE 1987-08-15 15:00:00 TS 31.4924 -60.1428 main 1411 1411 P_____________ AL021987 31.4924 -60.1428 TS 47 997 0 5 147
1987220N34283 1987 54 NA NA ARLENE 1987-08-15 18:00:00 TS 31.3000 -60.0000 45 998 hurdat_atl main 1435 1435 O_____________ hurdat_atl AL021987 31.3000 -60.0000 TS 45 998 0 5 143
1987220N34283 1987 54 NA NA ARLENE 1987-08-15 21:00:00 TS 31.1000 -59.8000 main 1462 1462 P_____________ AL021987 31.1000 -59.8000 TS 45 998 0 5 139
1987220N34283 1987 54 NA NA ARLENE 1987-08-16 00:00:00 TS 30.9000 -59.6000 45 999 hurdat_atl main 1490 1490 O_____________ hurdat_atl AL021987 30.9000 -59.6000 TS 45 999 0 5 143
1987220N34283 1987 54 NA NA ARLENE 1987-08-16 03:00:00 TS 30.6925 -59.4426 main 1509 1493 P_____________ AL021987 30.6925 -59.4426 TS 45 999 0 5 147
1987220N34283 1987 54 NA NA ARLENE 1987-08-16 06:00:00 TS 30.5000 -59.3000 45 1000 hurdat_atl main 1493 1483 O_____________ hurdat_atl AL021987 30.5000 -59.3000 TS 45 1000 0 4 144
1987220N34283 1987 54 NA NA ARLENE 1987-08-16 09:00:00 TS 30.3425 -59.1501 main 1478 1477 P_____________ AL021987 30.3425 -59.1501 TS 45 1000 0 4 139
1987220N34283 1987 54 NA NA ARLENE 1987-08-16 12:00:00 TS 30.2000 -59.0000 45 1000 hurdat_atl main 1477 1462 O_____________ hurdat_atl AL021987 30.2000 -59.0000 TS 45 1000 0 4 141
1987220N34283 1987 54 NA NA ARLENE 1987-08-16 15:00:00 TS 30.0349 -58.8650 main 1462 1457 P_____________ AL021987 30.0349 -58.8650 TS 45 1000 0 4 139
1987220N34283 1987 54 NA NA ARLENE 1987-08-16 18:00:00 TS 29.9000 -58.7000 45 1000 hurdat_atl main 1462 1457 O_____________ hurdat_atl AL021987 29.9000 -58.7000 TS 45 1000 0 4 120
1987220N34283 1987 54 NA NA ARLENE 1987-08-16 21:00:00 TS 29.8276 -58.4575 main 1462 1462 P_____________ AL021987 29.8276 -58.4575 TS 45 1000 0 4 103
1987220N34283 1987 54 NA NA ARLENE 1987-08-17 00:00:00 TS 29.8000 -58.2000 45 1000 hurdat_atl main 1477 1477 O_____________ hurdat_atl AL021987 29.8000 -58.2000 TS 45 1000 0 4 96
1987220N34283 1987 54 NA NA ARLENE 1987-08-17 03:00:00 TS 29.7849 -58.0000 main 1487 1487 P_____________ AL021987 29.7849 -58.0000 TS 45 1000 0 3 90
1987220N34283 1987 54 NA NA ARLENE 1987-08-17 06:00:00 TS 29.8000 -57.8000 45 1001 hurdat_atl main 1498 1498 O_____________ hurdat_atl AL021987 29.8000 -57.8000 TS 45 1001 0 4 84
1987220N34283 1987 54 NA NA ARLENE 1987-08-17 09:00:00 TS 29.8275 -57.5574 main 1509 1509 P_____________ AL021987 29.8275 -57.5574 TS 42 1001 0 4 77
1987220N34283 1987 54 NA NA ARLENE 1987-08-17 12:00:00 TS 29.9000 -57.3000 40 1002 hurdat_atl main 1534 1534 O_____________ hurdat_atl AL021987 29.9000 -57.3000 TS 40 1002 0 5 68
1987220N34283 1987 54 NA NA ARLENE 1987-08-17 15:00:00 TS 30.0049 -57.0572 main 1555 1555 P_____________ AL021987 30.0049 -57.0572 TS 40 1002 0 5 55
1987220N34283 1987 54 NA NA ARLENE 1987-08-17 18:00:00 TS 30.2000 -56.8000 40 1003 hurdat_atl main 1590 1590 O_____________ hurdat_atl AL021987 30.2000 -56.8000 TS 40 1003 0 7 43
1987220N34283 1987 54 NA NA ARLENE 1987-08-17 21:00:00 TS 30.5275 -56.5002 main 1634 1614 P_____________ AL021987 30.5275 -56.5002 TS 37 1003 0 9 36
1987220N34283 1987 54 NA NA ARLENE 1987-08-18 00:00:00 TS 30.9000 -56.2000 35 1004 hurdat_atl main 1614 1594 O_____________ hurdat_atl AL021987 30.9000 -56.2000 TS 35 1004 0 8 34
1987220N34283 1987 54 NA NA ARLENE 1987-08-18 03:00:00 TS 31.1846 -55.9790 main 1594 1578 P_____________ AL021987 31.1846 -55.9790 TS 35 1004 0 7 36
1987220N34283 1987 54 NA NA ARLENE 1987-08-18 06:00:00 TS 31.5000 -55.7000 35 1005 hurdat_atl main 1578 1559 O_____________ hurdat_atl AL021987 31.5000 -55.7000 TS 35 1005 0 10 40
1987220N34283 1987 54 NA NA ARLENE 1987-08-18 09:00:00 TS 31.9275 -55.2525 main 1559 1527 P_____________ AL021987 31.9275 -55.2525 TS 35 1005 0 12 43
1987220N34283 1987 54 NA NA ARLENE 1987-08-18 12:00:00 TS 32.4000 -54.7000 35 1005 hurdat_atl main 1527 1498 O_____________ hurdat_atl AL021987 32.4000 -54.7000 TS 35 1005 0 13 46
1987220N34283 1987 54 NA NA ARLENE 1987-08-18 15:00:00 TS 32.8648 -54.1223 main 1494 1471 P_____________ AL021987 32.8648 -54.1223 TS 35 1005 0 14 48
1987220N34283 1987 54 NA NA ARLENE 1987-08-18 18:00:00 TS 33.3000 -53.5000 35 1005 hurdat_atl main 1474 1446 O_____________ hurdat_atl AL021987 33.3000 -53.5000 TS 35 1005 0 13 53
1987220N34283 1987 54 NA NA ARLENE 1987-08-18 21:00:00 TS 33.6572 -52.8640 main 1435 1404 P_____________ AL021987 33.6572 -52.8640 TS 35 1005 0 13 57
1987220N34283 1987 54 NA NA ARLENE 1987-08-19 00:00:00 TS 34.0000 -52.2000 35 1005 hurdat_atl main 1404 1364 O_____________ hurdat_atl AL021987 34.0000 -52.2000 TS 35 1005 0 14 56
1987220N34283 1987 54 NA NA ARLENE 1987-08-19 03:00:00 TS 34.4074 -51.5001 main 1364 1326 P_____________ AL021987 34.4074 -51.5001 TS 35 1005 0 14 55
1987220N34283 1987 54 NA NA ARLENE 1987-08-19 06:00:00 TS 34.8000 -50.8000 35 1005 hurdat_atl main 1328 1300 O_____________ hurdat_atl AL021987 34.8000 -50.8000 TS 35 1005 0 13 55
1987220N34283 1987 54 NA NA ARLENE 1987-08-19 09:00:00 TS 35.1510 -50.1947 main 1292 1279 P_____________ AL021987 35.1510 -50.1947 TS 35 1005 0 12 61
1987220N34283 1987 54 NA NA ARLENE 1987-08-19 12:00:00 TS 35.4000 -49.5000 35 1005 hurdat_atl main 1283 1278 O_____________ hurdat_atl AL021987 35.4000 -49.5000 TS 35 1005 0 14 74
1987220N34283 1987 54 NA NA ARLENE 1987-08-19 15:00:00 TS 35.5336 -48.5154 main 1295 1295 P_____________ AL021987 35.5336 -48.5154 TS 35 1005 0 16 86
1987220N34283 1987 54 NA NA ARLENE 1987-08-19 18:00:00 TS 35.5000 -47.5000 35 1005 hurdat_atl main 1322 1322 O_____________ hurdat_atl AL021987 35.5000 -47.5000 TS 35 1005 0 15 99
1987220N34283 1987 54 NA NA ARLENE 1987-08-19 21:00:00 TS 35.2937 -46.7118 main 1368 1368 P_____________ AL021987 35.2937 -46.7118 TS 35 1004 0 13 112
1987220N34283 1987 54 NA NA ARLENE 1987-08-20 00:00:00 TS 35.0000 -46.0000 35 1004 hurdat_atl main 1423 1423 O_____________ hurdat_atl AL021987 35.0000 -46.0000 TS 35 1004 0 13 114
1987220N34283 1987 54 NA NA ARLENE 1987-08-20 03:00:00 TS 34.7502 -45.2126 main 1473 1473 P_____________ AL021987 34.7502 -45.2126 TS 37 1003 0 13 112
1987220N34283 1987 54 NA NA ARLENE 1987-08-20 06:00:00 TS 34.5000 -44.5000 40 1002 hurdat_atl main 1530 1530 O_____________ hurdat_atl AL021987 34.5000 -44.5000 TS 40 1002 0 12 116
1987220N34283 1987 54 NA NA ARLENE 1987-08-20 09:00:00 TS 34.2271 -43.9251 main 1584 1584 P_____________ AL021987 34.2271 -43.9251 TS 40 1001 0 10 121
1987220N34283 1987 54 NA NA ARLENE 1987-08-20 12:00:00 TS 34.0000 -43.5000 40 1000 hurdat_atl main 1621 1621 O_____________ hurdat_atl AL021987 34.0000 -43.5000 TS 40 1000 0 7 121
1987220N34283 1987 54 NA NA ARLENE 1987-08-20 15:00:00 TS 33.8697 -43.1979 main 1644 1644 P_____________ AL021987 33.8697 -43.1979 TS 45 998 0 5 116
1987220N34283 1987 54 NA NA ARLENE 1987-08-20 18:00:00 TS 33.8000 -43.0000 50 997 hurdat_atl main 1662 1662 O_____________ hurdat_atl AL021987 33.8000 -43.0000 TS 50 997 0 3 113
1987220N34283 1987 54 NA NA ARLENE 1987-08-20 21:00:00 TS 33.7424 -42.8426 main 1681 1681 P_____________ AL021987 33.7424 -42.8426 TS 52 996 0 3 112
1987220N34283 1987 54 NA NA ARLENE 1987-08-21 00:00:00 TS 33.7000 -42.7000 55 995 hurdat_atl main 1685 1685 O_____________ hurdat_atl AL021987 33.7000 -42.7000 TS 55 995 0 3 108
1987220N34283 1987 54 NA NA ARLENE 1987-08-21 03:00:00 TS 33.6500 -42.5000 main 1694 1694 P_____________ AL021987 33.6500 -42.5000 TS 55 994 0 3 107
1987220N34283 1987 54 NA NA ARLENE 1987-08-21 06:00:00 TS 33.6000 -42.3000 55 994 hurdat_atl main 1713 1713 O_____________ hurdat_atl AL021987 33.6000 -42.3000 TS 55 994 0 4 118
1987220N34283 1987 54 NA NA ARLENE 1987-08-21 09:00:00 TS 33.4675 -42.0828 main 1731 1731 P_____________ AL021987 33.4675 -42.0828 TS 55 993 0 3 112
1987220N34283 1987 54 NA NA ARLENE 1987-08-21 12:00:00 TS 33.5000 -42.0000 55 993 hurdat_atl main 1736 1688 O_____________ hurdat_atl AL021987 33.5000 -42.0000 TS 55 993 0 5 349
1987220N34283 1987 54 NA NA ARLENE 1987-08-21 15:00:00 TS 33.9176 -42.1894 main 1688 1616 P_____________ AL021987 33.9176 -42.1894 TS 57 992 0 11 337
1987220N34283 1987 54 NA NA ARLENE 1987-08-21 18:00:00 TS 34.5000 -42.5000 60 991 hurdat_atl main 1616 1554 O_____________ hurdat_atl AL021987 34.5000 -42.5000 TS 60 991 0 12 336
1987220N34283 1987 54 NA NA ARLENE 1987-08-21 21:00:00 TS 35.0001 -42.7871 main 1554 1497 P_____________ AL021987 35.0001 -42.7871 TS 60 990 0 11 338
1987220N34283 1987 54 NA NA ARLENE 1987-08-22 00:00:00 TS 35.5000 -43.0000 60 989 hurdat_atl main 1497 1459 O_____________ hurdat_atl AL021987 35.5000 -43.0000 TS 60 989 0 10 348
1987220N34283 1987 54 NA NA ARLENE 1987-08-22 03:00:00 TS 35.9624 -43.0382 main 1450 1403 P_____________ AL021987 35.9624 -43.0382 TS 62 988 0 10 1
1987220N34283 1987 54 NA NA ARLENE 1987-08-22 06:00:00 TS 36.5000 -43.0000 65 988 hurdat_atl main 1403 1339 O_____________ hurdat_atl AL021987 36.5000 -43.0000 HU 65 988 1 13 0
1987220N34283 1987 54 NA NA ARLENE 1987-08-22 09:00:00 TS 37.2124 -43.0363 main 1339 1268 P_____________ AL021987 37.2124 -43.0363 HU 65 987 1 15 0
1987220N34283 1987 54 NA NA ARLENE 1987-08-22 12:00:00 TS 38.0000 -43.0000 65 987 hurdat_atl main 1268 1213 O_____________ hurdat_atl AL021987 38.0000 -43.0000 HU 65 987 1 15 5
1987220N34283 1987 54 NA NA ARLENE 1987-08-22 15:00:00 TS 38.7118 -42.8597 main 1213 1170 P_____________ AL021987 38.7118 -42.8597 HU 65 987 1 16 15
1987220N34283 1987 54 NA NA ARLENE 1987-08-22 18:00:00 TS 39.5000 -42.5000 65 987 hurdat_atl main 1170 1137 O_____________ hurdat_atl AL021987 39.5000 -42.5000 HU 65 987 1 19 24
1987220N34283 1987 54 NA NA ARLENE 1987-08-22 21:00:00 TS 40.4250 -41.8606 main 1137 1119 P_____________ AL021987 40.4250 -41.8606 HU 65 987 1 23 30
1987220N34283 1987 54 NA NA ARLENE 1987-08-23 00:00:00 TS 41.5000 -41.0000 65 987 hurdat_atl main 1119 1108 O_____________ hurdat_atl AL021987 41.5000 -41.0000 HU 65 987 1 27 30
1987220N34283 1987 54 NA NA ARLENE 1987-08-23 03:00:00 TS 42.7117 -40.0721 main 1110 1106 P_____________ AL021987 42.7117 -40.0721 HU 65 987 1 29 30
1987220N34283 1987 54 NA NA ARLENE 1987-08-23 06:00:00 TS 44.0000 -39.0000 65 987 hurdat_atl main 1118 1118 O_____________ hurdat_atl AL021987 44.0000 -39.0000 HU 65 987 1 30 32
1987220N34283 1987 54 NA NA ARLENE 1987-08-23 09:00:00 TS 45.2846 -37.8575 main 1146 1146 P_____________ AL021987 45.2846 -37.8575 HU 65 987 1 31 35
1987220N34283 1987 54 NA NA ARLENE 1987-08-23 12:00:00 TS 46.5000 -36.5000 65 988 hurdat_atl main 1218 1218 O_____________ hurdat_atl AL021987 46.5000 -36.5000 HU 65 988 1 31 43
1987220N34283 1987 54 NA NA ARLENE 1987-08-23 15:00:00 TS 47.5769 -34.7879 main 1327 1327 P_____________ AL021987 47.5769 -34.7879 HU 65 988 1 31 50
1987220N34283 1987 54 NA NA ARLENE 1987-08-23 18:00:00 TS 48.5000 -33.0000 65 988 hurdat_atl main 1437 1400 O_____________ hurdat_atl AL021987 48.5000 -33.0000 HU 65 988 1 28 51
1987220N34283 1987 54 NA NA ARLENE 1987-08-23 21:00:00 TS 49.3587 -31.4597 main 1393 1378 P_____________ AL021987 49.3587 -31.4597 HU 62 988 0 25 52
1987220N34283 1987 54 NA NA ARLENE 1987-08-24 00:00:00 ET 50.0000 -30.0000 60 989 hurdat_atl main 1371 1267 O_____________ hurdat_atl AL021987 50.0000 -30.0000 EX 60 989 -4 21 62
1987220N34283 1987 54 NA NA ARLENE 1987-08-24 03:00:00 ET 50.3588 -28.5323 main 1257 1159 P_____________ AL021987 50.3588 -28.5323 EX 60 990 -4 20 75
1987220N34283 1987 54 NA NA ARLENE 1987-08-24 06:00:00 ET 50.5000 -27.0000 60 991 hurdat_atl main 1152 1040 O_____________ hurdat_atl AL021987 50.5000 -27.0000 EX 60 991 -4 21 84
1987220N34283 1987 54 NA NA ARLENE 1987-08-24 09:00:00 ET 50.5738 -25.2878 main 1034 922 P_____________ AL021987 50.5738 -25.2878 EX 60 991 -4 22 90
1987220N34283 1987 54 NA NA ARLENE 1987-08-24 12:00:00 ET 50.5000 -23.5000 60 992 hurdat_atl main 915 797 O_____________ hurdat_atl AL021987 50.5000 -23.5000 EX 60 992 -4 23 94
1987220N34283 1987 54 NA NA ARLENE 1987-08-24 15:00:00 ET 50.4014 -21.6421 main 790 705 P_____________ AL021987 50.4014 -21.6421 EX 57 993 -4 23 103
1987220N34283 1987 54 NA NA ARLENE 1987-08-24 18:00:00 ET 50.0000 -20.0000 55 995 hurdat_atl main 698 663 O_____________ hurdat_atl AL021987 50.0000 -20.0000 EX 55 995 -4 22 125
1987220N34283 1987 54 NA NA ARLENE 1987-08-24 21:00:00 ET 49.1095 -18.8084 main 662 661 P_____________ AL021987 49.1095 -18.8084 EX 52 996 -4 24 147
1987220N34283 1987 54 NA NA ARLENE 1987-08-25 00:00:00 ET 48.0000 -18.0000 50 998 hurdat_atl main 684 684 O_____________ hurdat_atl AL021987 48.0000 -18.0000 EX 50 998 -4 23 156
1987220N34283 1987 54 NA NA ARLENE 1987-08-25 03:00:00 ET 46.9989 -17.3917 main 727 698 P_____________ AL021987 46.9989 -17.3917 EX 47 1000 -4 21 161
1987220N34283 1987 54 NA NA ARLENE 1987-08-25 06:00:00 ET 46.0000 -17.0000 45 1002 hurdat_atl main 693 637 O_____________ hurdat_atl AL021987 46.0000 -17.0000 EX 45 1002 -4 21 169
1987220N34283 1987 54 NA NA ARLENE 1987-08-25 09:00:00 ET 44.9239 -16.7919 main 634 588 P_____________ AL021987 44.9239 -16.7919 EX 40 1004 -4 20 170
1987220N34283 1987 54 NA NA ARLENE 1987-08-25 12:00:00 ET 44.0000 -16.5000 35 1006 hurdat_atl main 588 527 O_____________ hurdat_atl AL021987 44.0000 -16.5000 EX 35 1006 -4 16 153
1987220N34283 1987 54 NA NA ARLENE 1987-08-25 15:00:00 ET 43.4643 -15.7499 main 519 461 P_____________ AL021987 43.4643 -15.7499 EX 30 1007 -4 15 133
1987220N34283 1987 54 NA NA ARLENE 1987-08-25 18:00:00 ET 43.0000 -15.0000 25 1009 hurdat_atl main 461 441 O_____________ hurdat_atl AL021987 43.0000 -15.0000 EX 25 1009 -4 14 145
1987220N34283 1987 54 NA NA ARLENE 1987-08-25 21:00:00 ET 42.3241 -14.6776 main 445 439 P_____________ AL021987 42.3241 -14.6776 EX 22 1009 -4 15 166
1987220N34283 1987 54 NA NA ARLENE 1987-08-26 00:00:00 ET 41.5000 -14.5000 20 1010 hurdat_atl main 454 454 O_____________ hurdat_atl AL021987 41.5000 -14.5000 EX 20 1010 -4 18 174
1987220N34283 1987 54 NA NA ARLENE 1987-08-26 03:00:00 ET 40.5349 -14.4068 main 453 396 P_____________ AL021987 40.5349 -14.4068 EX 17 1010 -4 20 169
1987220N34283 1987 54 NA NA ARLENE 1987-08-26 06:00:00 ET 39.5000 -14.0000 15 1011 hurdat_atl main 394 308 O_____________ hurdat_atl AL021987 39.5000 -14.0000 EX 15 1011 -4 26 154
1987220N34283 1987 54 NA NA ARLENE 1987-08-26 09:00:00 ET 38.2370 -12.9571 main 310 232 P_____________ AL021987 38.2370 -12.9571 EX 12 1010 -4 28 136
1987220N34283 1987 54 NA NA ARLENE 1987-08-26 12:00:00 ET 37.5000 -11.5000 10 1010 hurdat_atl main 224 62 O_____________ hurdat_atl AL021987 37.5000 -11.5000 EX 10 1010 -4 25 93
1987220N34283 1987 54 NA NA ARLENE 1987-08-26 15:00:00 ET 38.1049 -9.73591 main 54 0 P_____________ AL021987 38.1049 -9.73591 EX 10 1009 -4 31 61
1987220N34283 1987 54 NA NA ARLENE 1987-08-26 18:00:00 ET 39.0000 -8.00000 10 1009 hurdat_atl main 0 0 O_____________ hurdat_atl AL021987 39.0000 -8.00000 EX 10 1009 -4 25 66
1987220N34283 1987 54 NA NA ARLENE 1987-08-26 21:00:00 ET 39.1093 -6.80553 main 0 0 P_____________ AL021987 39.1093 -6.80553 EX 12 1008 -4 15 90
1987220N34283 1987 54 NA NA ARLENE 1987-08-27 00:00:00 ET 39.0000 -6.00000 15 1008 hurdat_atl main 0 0 O_____________ hurdat_atl AL021987 39.0000 -6.00000 EX 15 1008 -4 11 96
1987220N34283 1987 54 NA NA ARLENE 1987-08-27 03:00:00 ET 38.9989 -5.38756 main 0 0 P_____________ AL021987 38.9989 -5.38756 EX 15 1008 -4 8 90
1987220N34283 1987 54 NA NA ARLENE 1987-08-27 06:00:00 ET 39.0000 -5.00000 15 1008 hurdat_atl main 0 0 O_____________ hurdat_atl AL021987 39.0000 -5.00000 EX 15 1008 -4 5 90
1987220N34283 1987 54 NA NA ARLENE 1987-08-27 09:00:00 ET 38.9996 -4.71251 main 0 0 P_____________ AL021987 38.9996 -4.71251 EX 15 1008 -4 4 90
1987220N34283 1987 54 NA NA ARLENE 1987-08-27 12:00:00 ET 39.0000 -4.50000 15 1008 hurdat_atl main 0 0 O_____________ hurdat_atl AL021987 39.0000 -4.50000 EX 15 1008 -4 4 90
1987220N34283 1987 54 NA NA ARLENE 1987-08-27 15:00:00 ET 39.0001 -4.21250 main 0 0 P_____________ AL021987 39.0001 -4.21250 EX 12 1008 -4 4 90
1987220N34283 1987 54 NA NA ARLENE 1987-08-27 18:00:00 ET 39.0000 -4.00000 10 1008 hurdat_atl main 0 0 O_____________ hurdat_atl AL021987 39.0000 -4.00000 EX 10 1008 -4 2 90
1987220N34283 1987 54 NA NA ARLENE 1987-08-27 21:00:00 ET 38.9999 -3.95000 main 0 0 P_____________ AL021987 38.9999 -3.95000 EX 10 1008 -4 0 0
1987220N34283 1987 54 NA NA ARLENE 1987-08-28 00:00:00 ET 39.0000 -4.00000 10 1009 hurdat_atl main 0 O_____________ hurdat_atl AL021987 39.0000 -4.00000 EX 10 1009 -4 1 270

About IBTrACS Database

This database is a web-friendly format of International Best Track Archive for Climate Stewardship (IBTrACS), a global best track data archive curated by NOAA dating back to 1842.

Updated: 2021-12-03